sensor_id;sensor_type;location;lat;lon;timestamp;P1;durP1;ratioP1;P2;durP2;ratioP2
26718;SDS011;14326;50.794;6.060;2023-08-06T00:01:56;4.35;;;1.80;;
26718;SDS011;14326;50.794;6.060;2023-08-06T00:04:22;4.43;;;1.90;;
26718;SDS011;14326;50.794;6.060;2023-08-06T00:06:50;7.57;;;2.08;;
26718;SDS011;14326;50.794;6.060;2023-08-06T00:09:17;6.82;;;1.88;;
26718;SDS011;14326;50.794;6.060;2023-08-06T00:11:44;6.95;;;1.80;;
26718;SDS011;14326;50.794;6.060;2023-08-06T00:14:11;6.22;;;1.85;;
26718;SDS011;14326;50.794;6.060;2023-08-06T00:16:40;7.50;;;2.00;;
26718;SDS011;14326;50.794;6.060;2023-08-06T00:19:08;6.65;;;2.10;;
26718;SDS011;14326;50.794;6.060;2023-08-06T00:21:35;6.65;;;1.90;;
26718;SDS011;14326;50.794;6.060;2023-08-06T00:24:03;3.00;;;1.33;;
26718;SDS011;14326;50.794;6.060;2023-08-06T00:26:30;7.18;;;2.38;;
26718;SDS011;14326;50.794;6.060;2023-08-06T00:28:56;4.65;;;1.40;;
26718;SDS011;14326;50.794;6.060;2023-08-06T00:31:23;6.72;;;2.58;;
26718;SDS011;14326;50.794;6.060;2023-08-06T00:33:49;7.15;;;1.88;;
26718;SDS011;14326;50.794;6.060;2023-08-06T00:36:16;10.32;;;1.73;;
26718;SDS011;14326;50.794;6.060;2023-08-06T00:38:42;8.23;;;1.90;;
26718;SDS011;14326;50.794;6.060;2023-08-06T00:41:10;5.30;;;1.90;;
26718;SDS011;14326;50.794;6.060;2023-08-06T00:43:37;6.10;;;1.63;;
26718;SDS011;14326;50.794;6.060;2023-08-06T00:46:03;5.30;;;1.50;;
26718;SDS011;14326;50.794;6.060;2023-08-06T00:48:30;4.43;;;1.30;;
26718;SDS011;14326;50.794;6.060;2023-08-06T00:50:57;3.55;;;1.20;;
26718;SDS011;14326;50.794;6.060;2023-08-06T00:53:24;8.18;;;1.58;;
26718;SDS011;14326;50.794;6.060;2023-08-06T00:55:51;7.22;;;1.80;;
26718;SDS011;14326;50.794;6.060;2023-08-06T00:58:19;3.90;;;1.17;;
26718;SDS011;14326;50.794;6.060;2023-08-06T01:00:46;5.78;;;1.50;;
26718;SDS011;14326;50.794;6.060;2023-08-06T01:03:13;4.82;;;1.30;;
26718;SDS011;14326;50.794;6.060;2023-08-06T01:05:40;6.15;;;1.17;;
26718;SDS011;14326;50.794;6.060;2023-08-06T01:08:11;6.53;;;1.40;;
26718;SDS011;14326;50.794;6.060;2023-08-06T01:10:48;5.57;;;1.27;;
26718;SDS011;14326;50.794;6.060;2023-08-06T01:13:27;3.95;;;1.40;;
26718;SDS011;14326;50.794;6.060;2023-08-06T01:15:58;5.80;;;1.40;;
26718;SDS011;14326;50.794;6.060;2023-08-06T01:18:25;6.43;;;1.45;;
26718;SDS011;14326;50.794;6.060;2023-08-06T01:20:53;5.72;;;1.42;;
26718;SDS011;14326;50.794;6.060;2023-08-06T01:23:19;4.57;;;1.48;;
26718;SDS011;14326;50.794;6.060;2023-08-06T01:25:48;4.72;;;2.00;;
26718;SDS011;14326;50.794;6.060;2023-08-06T01:28:23;4.60;;;1.60;;
26718;SDS011;14326;50.794;6.060;2023-08-06T01:30:59;4.47;;;1.30;;
26718;SDS011;14326;50.794;6.060;2023-08-06T01:35:59;4.28;;;1.30;;
26718;SDS011;14326;50.794;6.060;2023-08-06T01:38:27;2.88;;;1.40;;
26718;SDS011;14326;50.794;6.060;2023-08-06T01:40:54;4.22;;;1.30;;
26718;SDS011;14326;50.794;6.060;2023-08-06T01:43:20;4.03;;;1.35;;
26718;SDS011;14326;50.794;6.060;2023-08-06T01:45:47;5.82;;;1.48;;
26718;SDS011;14326;50.794;6.060;2023-08-06T01:48:14;7.45;;;1.55;;
26718;SDS011;14326;50.794;6.060;2023-08-06T01:50:40;4.93;;;1.30;;
26718;SDS011;14326;50.794;6.060;2023-08-06T01:53:08;6.28;;;1.38;;
26718;SDS011;14326;50.794;6.060;2023-08-06T01:55:35;6.40;;;1.77;;
26718;SDS011;14326;50.794;6.060;2023-08-06T01:58:01;6.88;;;1.75;;
26718;SDS011;14326;50.794;6.060;2023-08-06T02:00:28;5.47;;;1.83;;
26718;SDS011;14326;50.794;6.060;2023-08-06T02:02:54;2.15;;;1.00;;
26718;SDS011;14326;50.794;6.060;2023-08-06T02:05:21;4.35;;;1.40;;
26718;SDS011;14326;50.794;6.060;2023-08-06T02:07:48;3.67;;;1.35;;
26718;SDS011;14326;50.794;6.060;2023-08-06T02:10:16;6.53;;;1.15;;
26718;SDS011;14326;50.794;6.060;2023-08-06T02:12:42;5.75;;;1.55;;
26718;SDS011;14326;50.794;6.060;2023-08-06T02:15:09;4.65;;;1.58;;
26718;SDS011;14326;50.794;6.060;2023-08-06T02:17:35;8.32;;;1.40;;
26718;SDS011;14326;50.794;6.060;2023-08-06T02:20:02;4.57;;;1.23;;
26718;SDS011;14326;50.794;6.060;2023-08-06T02:22:29;5.88;;;1.60;;
26718;SDS011;14326;50.794;6.060;2023-08-06T02:24:56;8.20;;;1.58;;
26718;SDS011;14326;50.794;6.060;2023-08-06T02:27:24;7.38;;;1.55;;
26718;SDS011;14326;50.794;6.060;2023-08-06T02:29:51;3.13;;;1.38;;
26718;SDS011;14326;50.794;6.060;2023-08-06T02:32:17;4.28;;;1.20;;
26718;SDS011;14326;50.794;6.060;2023-08-06T02:34:44;8.88;;;1.20;;
26718;SDS011;14326;50.794;6.060;2023-08-06T02:37:10;7.13;;;1.58;;
26718;SDS011;14326;50.794;6.060;2023-08-06T02:39:37;5.90;;;1.23;;
26718;SDS011;14326;50.794;6.060;2023-08-06T02:42:05;5.80;;;1.20;;
26718;SDS011;14326;50.794;6.060;2023-08-06T02:44:34;5.57;;;1.30;;
26718;SDS011;14326;50.794;6.060;2023-08-06T02:47:00;7.60;;;1.52;;
26718;SDS011;14326;50.794;6.060;2023-08-06T02:49:27;3.03;;;1.00;;
26718;SDS011;14326;50.794;6.060;2023-08-06T02:51:54;3.10;;;1.38;;
26718;SDS011;14326;50.794;6.060;2023-08-06T02:54:20;6.18;;;1.17;;
26718;SDS011;14326;50.794;6.060;2023-08-06T02:56:47;7.07;;;1.52;;
26718;SDS011;14326;50.794;6.060;2023-08-06T02:59:13;7.22;;;1.05;;
26718;SDS011;14326;50.794;6.060;2023-08-06T03:01:41;3.00;;;1.10;;
26718;SDS011;14326;50.794;6.060;2023-08-06T03:04:08;3.60;;;1.10;;
26718;SDS011;14326;50.794;6.060;2023-08-06T03:06:35;4.47;;;0.98;;
26718;SDS011;14326;50.794;6.060;2023-08-06T03:09:01;5.25;;;1.00;;
26718;SDS011;14326;50.794;6.060;2023-08-06T03:11:28;4.47;;;1.30;;
26718;SDS011;14326;50.794;6.060;2023-08-06T03:13:54;2.83;;;0.93;;
26718;SDS011;14326;50.794;6.060;2023-08-06T03:16:21;2.97;;;0.73;;
26718;SDS011;14326;50.794;6.060;2023-08-06T03:18:49;3.67;;;0.80;;
26718;SDS011;14326;50.794;6.060;2023-08-06T03:21:16;1.50;;;0.70;;
26718;SDS011;14326;50.794;6.060;2023-08-06T03:23:42;2.67;;;0.77;;
26718;SDS011;14326;50.794;6.060;2023-08-06T03:26:09;3.15;;;0.90;;
26718;SDS011;14326;50.794;6.060;2023-08-06T03:28:35;0.80;;;0.50;;
26718;SDS011;14326;50.794;6.060;2023-08-06T03:31:02;5.25;;;1.00;;
26718;SDS011;14326;50.794;6.060;2023-08-06T03:33:29;2.00;;;0.63;;
26718;SDS011;14326;50.794;6.060;2023-08-06T03:35:57;3.92;;;0.70;;
26718;SDS011;14326;50.794;6.060;2023-08-06T03:38:24;1.95;;;0.47;;
26718;SDS011;14326;50.794;6.060;2023-08-06T03:40:51;1.38;;;0.52;;
26718;SDS011;14326;50.794;6.060;2023-08-06T03:43:17;0.73;;;0.50;;
26718;SDS011;14326;50.794;6.060;2023-08-06T03:45:44;3.45;;;0.77;;
26718;SDS011;14326;50.794;6.060;2023-08-06T03:48:10;0.90;;;0.57;;
26718;SDS011;14326;50.794;6.060;2023-08-06T03:50:37;1.27;;;0.77;;
26718;SDS011;14326;50.794;6.060;2023-08-06T03:53:05;2.00;;;0.85;;
26718;SDS011;14326;50.794;6.060;2023-08-06T03:55:32;2.35;;;0.88;;
26718;SDS011;14326;50.794;6.060;2023-08-06T03:57:58;2.22;;;0.80;;
26718;SDS011;14326;50.794;6.060;2023-08-06T04:00:25;5.88;;;1.15;;
26718;SDS011;14326;50.794;6.060;2023-08-06T04:02:51;3.53;;;1.15;;
26718;SDS011;14326;50.794;6.060;2023-08-06T04:05:18;5.05;;;1.50;;
26718;SDS011;14326;50.794;6.060;2023-08-06T04:07:44;3.67;;;1.50;;
26718;SDS011;14326;50.794;6.060;2023-08-06T04:10:12;7.70;;;1.60;;
26718;SDS011;14326;50.794;6.060;2023-08-06T04:12:39;7.70;;;1.88;;
26718;SDS011;14326;50.794;6.060;2023-08-06T04:15:06;6.20;;;1.92;;
26718;SDS011;14326;50.794;6.060;2023-08-06T04:17:33;6.53;;;2.28;;
26718;SDS011;14326;50.794;6.060;2023-08-06T04:20:00;6.65;;;2.70;;
26718;SDS011;14326;50.794;6.060;2023-08-06T04:22:27;7.63;;;2.72;;
26718;SDS011;14326;50.794;6.060;2023-08-06T04:24:53;7.47;;;2.72;;
26718;SDS011;14326;50.794;6.060;2023-08-06T04:27:21;11.40;;;2.90;;
26718;SDS011;14326;50.794;6.060;2023-08-06T04:29:48;12.05;;;2.80;;
26718;SDS011;14326;50.794;6.060;2023-08-06T04:32:15;8.77;;;2.83;;
26718;SDS011;14326;50.794;6.060;2023-08-06T04:34:42;7.63;;;2.25;;
26718;SDS011;14326;50.794;6.060;2023-08-06T04:37:09;8.98;;;2.83;;
26718;SDS011;14326;50.794;6.060;2023-08-06T04:39:35;10.48;;;3.00;;
26718;SDS011;14326;50.794;6.060;2023-08-06T04:42:02;9.13;;;2.83;;
26718;SDS011;14326;50.794;6.060;2023-08-06T04:44:31;6.78;;;2.67;;
26718;SDS011;14326;50.794;6.060;2023-08-06T04:46:57;7.90;;;2.80;;
26718;SDS011;14326;50.794;6.060;2023-08-06T04:49:24;11.82;;;3.10;;
26718;SDS011;14326;50.794;6.060;2023-08-06T04:51:51;9.65;;;3.17;;
26718;SDS011;14326;50.794;6.060;2023-08-06T04:54:17;8.00;;;3.13;;
26718;SDS011;14326;50.794;6.060;2023-08-06T04:56:44;13.45;;;4.00;;
26718;SDS011;14326;50.794;6.060;2023-08-06T04:59:11;11.27;;;3.75;;
26718;SDS011;14326;50.794;6.060;2023-08-06T05:01:38;12.63;;;3.97;;
26718;SDS011;14326;50.794;6.060;2023-08-06T05:04:05;8.55;;;3.53;;
26718;SDS011;14326;50.794;6.060;2023-08-06T05:06:32;10.98;;;4.35;;
26718;SDS011;14326;50.794;6.060;2023-08-06T05:08:58;15.30;;;3.90;;
26718;SDS011;14326;50.794;6.060;2023-08-06T05:11:25;15.07;;;4.05;;
26718;SDS011;14326;50.794;6.060;2023-08-06T05:13:51;12.30;;;4.35;;
26718;SDS011;14326;50.794;6.060;2023-08-06T05:16:18;13.57;;;4.45;;
26718;SDS011;14326;50.794;6.060;2023-08-06T05:18:46;14.48;;;4.30;;
26718;SDS011;14326;50.794;6.060;2023-08-06T05:21:12;12.88;;;4.28;;
26718;SDS011;14326;50.794;6.060;2023-08-06T05:23:39;12.75;;;4.25;;
26718;SDS011;14326;50.794;6.060;2023-08-06T05:26:06;14.05;;;4.60;;
26718;SDS011;14326;50.794;6.060;2023-08-06T05:28:32;12.63;;;4.60;;
26718;SDS011;14326;50.794;6.060;2023-08-06T05:31:02;15.50;;;4.70;;
26718;SDS011;14326;50.794;6.060;2023-08-06T05:33:29;14.25;;;5.05;;
26718;SDS011;14326;50.794;6.060;2023-08-06T05:35:57;14.65;;;4.75;;
26718;SDS011;14326;50.794;6.060;2023-08-06T05:38:24;12.90;;;5.10;;
26718;SDS011;14326;50.794;6.060;2023-08-06T05:40:50;14.60;;;5.15;;
26718;SDS011;14326;50.794;6.060;2023-08-06T05:43:17;11.45;;;4.72;;
26718;SDS011;14326;50.794;6.060;2023-08-06T05:45:44;18.48;;;5.78;;
26718;SDS011;14326;50.794;6.060;2023-08-06T05:48:11;14.25;;;5.20;;
26718;SDS011;14326;50.794;6.060;2023-08-06T05:50:38;13.80;;;5.05;;
26718;SDS011;14326;50.794;6.060;2023-08-06T05:53:05;13.38;;;5.38;;
26718;SDS011;14326;50.794;6.060;2023-08-06T05:55:32;15.75;;;5.50;;
26718;SDS011;14326;50.794;6.060;2023-08-06T05:57:59;20.27;;;5.28;;
26718;SDS011;14326;50.794;6.060;2023-08-06T06:00:26;12.65;;;4.93;;
26718;SDS011;14326;50.794;6.060;2023-08-06T06:02:52;12.23;;;5.03;;
26718;SDS011;14326;50.794;6.060;2023-08-06T06:05:19;17.67;;;5.82;;
26718;SDS011;14326;50.794;6.060;2023-08-06T06:07:46;15.68;;;5.95;;
26718;SDS011;14326;50.794;6.060;2023-08-06T06:10:14;17.33;;;5.43;;
26718;SDS011;14326;50.794;6.060;2023-08-06T06:12:40;15.63;;;5.43;;
26718;SDS011;14326;50.794;6.060;2023-08-06T06:15:07;18.63;;;6.03;;
26718;SDS011;14326;50.794;6.060;2023-08-06T06:17:34;13.98;;;5.40;;
26718;SDS011;14326;50.794;6.060;2023-08-06T06:20:01;15.43;;;5.28;;
26718;SDS011;14326;50.794;6.060;2023-08-06T06:22:29;18.02;;;5.75;;
26718;SDS011;14326;50.794;6.060;2023-08-06T06:24:55;16.63;;;5.65;;
26718;SDS011;14326;50.794;6.060;2023-08-06T06:27:23;16.95;;;6.05;;
26718;SDS011;14326;50.794;6.060;2023-08-06T06:29:50;18.35;;;6.07;;
26718;SDS011;14326;50.794;6.060;2023-08-06T06:32:17;15.20;;;6.18;;
26718;SDS011;14326;50.794;6.060;2023-08-06T06:34:44;18.40;;;6.47;;
26718;SDS011;14326;50.794;6.060;2023-08-06T06:37:10;17.98;;;6.03;;
26718;SDS011;14326;50.794;6.060;2023-08-06T06:39:37;17.83;;;6.18;;
26718;SDS011;14326;50.794;6.060;2023-08-06T06:42:04;17.65;;;6.43;;
26718;SDS011;14326;50.794;6.060;2023-08-06T06:44:33;15.32;;;6.07;;
26718;SDS011;14326;50.794;6.060;2023-08-06T06:46:59;20.45;;;6.90;;
26718;SDS011;14326;50.794;6.060;2023-08-06T06:49:26;17.17;;;6.38;;
26718;SDS011;14326;50.794;6.060;2023-08-06T06:51:52;17.00;;;6.10;;
26718;SDS011;14326;50.794;6.060;2023-08-06T06:54:19;17.38;;;5.95;;
26718;SDS011;14326;50.794;6.060;2023-08-06T06:56:45;15.95;;;5.78;;
26718;SDS011;14326;50.794;6.060;2023-08-06T06:59:12;16.27;;;5.85;;
26718;SDS011;14326;50.794;6.060;2023-08-06T07:01:40;10.90;;;4.25;;
26718;SDS011;14326;50.794;6.060;2023-08-06T07:04:07;13.07;;;4.82;;
26718;SDS011;14326;50.794;6.060;2023-08-06T07:06:33;13.10;;;4.88;;
26718;SDS011;14326;50.794;6.060;2023-08-06T07:09:00;11.60;;;4.32;;
26718;SDS011;14326;50.794;6.060;2023-08-06T07:11:29;11.38;;;3.85;;
26718;SDS011;14326;50.794;6.060;2023-08-06T07:13:56;9.48;;;3.95;;
26718;SDS011;14326;50.794;6.060;2023-08-06T07:16:23;9.18;;;3.83;;
26718;SDS011;14326;50.794;6.060;2023-08-06T07:18:52;8.10;;;2.80;;
26718;SDS011;14326;50.794;6.060;2023-08-06T07:21:20;4.88;;;2.20;;
26718;SDS011;14326;50.794;6.060;2023-08-06T07:23:46;6.78;;;2.40;;
26718;SDS011;14326;50.794;6.060;2023-08-06T07:26:14;6.93;;;2.05;;
26718;SDS011;14326;50.794;6.060;2023-08-06T07:28:41;2.70;;;1.45;;
26718;SDS011;14326;50.794;6.060;2023-08-06T07:31:08;2.67;;;1.27;;
26718;SDS011;14326;50.794;6.060;2023-08-06T07:33:34;2.92;;;1.40;;
26718;SDS011;14326;50.794;6.060;2023-08-06T07:36:09;2.35;;;1.35;;
26718;SDS011;14326;50.794;6.060;2023-08-06T07:38:36;3.08;;;1.60;;
26718;SDS011;14326;50.794;6.060;2023-08-06T07:41:03;1.45;;;1.00;;
26718;SDS011;14326;50.794;6.060;2023-08-06T07:43:30;2.75;;;0.90;;
26718;SDS011;14326;50.794;6.060;2023-08-06T07:45:57;3.63;;;0.77;;
26718;SDS011;14326;50.794;6.060;2023-08-06T07:48:24;0.50;;;0.50;;
26718;SDS011;14326;50.794;6.060;2023-08-06T07:50:51;1.13;;;0.70;;
26718;SDS011;14326;50.794;6.060;2023-08-06T07:53:20;0.70;;;0.43;;
26718;SDS011;14326;50.794;6.060;2023-08-06T07:55:48;2.78;;;1.13;;
26718;SDS011;14326;50.794;6.060;2023-08-06T07:58:16;1.90;;;1.13;;
26718;SDS011;14326;50.794;6.060;2023-08-06T08:00:42;2.10;;;0.90;;
26718;SDS011;14326;50.794;6.060;2023-08-06T08:03:10;0.85;;;0.70;;
26718;SDS011;14326;50.794;6.060;2023-08-06T08:05:37;1.60;;;1.00;;
26718;SDS011;14326;50.794;6.060;2023-08-06T08:08:04;4.03;;;1.23;;
26718;SDS011;14326;50.794;6.060;2023-08-06T08:10:32;4.32;;;1.02;;
26718;SDS011;14326;50.794;6.060;2023-08-06T08:12:59;3.88;;;1.80;;
26718;SDS011;14326;50.794;6.060;2023-08-06T08:15:27;6.78;;;2.42;;
26718;SDS011;14326;50.794;6.060;2023-08-06T08:17:54;5.97;;;2.42;;
26718;SDS011;14326;50.794;6.060;2023-08-06T08:20:21;8.15;;;2.70;;
26718;SDS011;14326;50.794;6.060;2023-08-06T08:22:47;7.95;;;3.30;;
26718;SDS011;14326;50.794;6.060;2023-08-06T08:25:15;8.70;;;3.25;;
26718;SDS011;14326;50.794;6.060;2023-08-06T08:27:43;8.90;;;3.17;;
26718;SDS011;14326;50.794;6.060;2023-08-06T08:30:10;9.82;;;3.22;;
26718;SDS011;14326;50.794;6.060;2023-08-06T08:32:36;9.88;;;3.80;;
26718;SDS011;14326;50.794;6.060;2023-08-06T08:35:03;11.00;;;3.45;;
26718;SDS011;14326;50.794;6.060;2023-08-06T08:37:30;12.32;;;3.70;;
26718;SDS011;14326;50.794;6.060;2023-08-06T08:39:57;8.90;;;3.38;;
26718;SDS011;14326;50.794;6.060;2023-08-06T08:42:23;11.35;;;3.63;;
26718;SDS011;14326;50.794;6.060;2023-08-06T08:44:52;10.55;;;3.63;;
26718;SDS011;14326;50.794;6.060;2023-08-06T08:47:20;10.73;;;3.35;;
26718;SDS011;14326;50.794;6.060;2023-08-06T08:49:47;11.13;;;3.45;;
26718;SDS011;14326;50.794;6.060;2023-08-06T08:54:45;10.57;;;3.05;;
26718;SDS011;14326;50.794;6.060;2023-08-06T08:57:16;9.65;;;2.83;;
26718;SDS011;14326;50.794;6.060;2023-08-06T08:59:43;12.60;;;3.42;;
26718;SDS011;14326;50.794;6.060;2023-08-06T09:02:12;8.57;;;2.30;;
26718;SDS011;14326;50.794;6.060;2023-08-06T09:04:40;13.13;;;3.30;;
26718;SDS011;14326;50.794;6.060;2023-08-06T09:07:08;13.32;;;2.85;;
26718;SDS011;14326;50.794;6.060;2023-08-06T09:09:39;12.55;;;3.00;;
26718;SDS011;14326;50.794;6.060;2023-08-06T09:12:10;8.40;;;2.53;;
26718;SDS011;14326;50.794;6.060;2023-08-06T09:14:38;10.52;;;2.47;;
26718;SDS011;14326;50.794;6.060;2023-08-06T09:17:05;11.10;;;2.58;;
26718;SDS011;14326;50.794;6.060;2023-08-06T09:19:34;10.40;;;2.50;;
26718;SDS011;14326;50.794;6.060;2023-08-06T09:22:00;11.13;;;2.80;;
26718;SDS011;14326;50.794;6.060;2023-08-06T09:24:27;10.70;;;2.70;;
26718;SDS011;14326;50.794;6.060;2023-08-06T09:26:54;8.80;;;2.40;;
26718;SDS011;14326;50.794;6.060;2023-08-06T09:29:21;8.80;;;2.25;;
26718;SDS011;14326;50.794;6.060;2023-08-06T09:31:48;10.07;;;2.40;;
26718;SDS011;14326;50.794;6.060;2023-08-06T09:34:17;13.07;;;2.40;;
26718;SDS011;14326;50.794;6.060;2023-08-06T09:36:46;9.18;;;2.10;;
26718;SDS011;14326;50.794;6.060;2023-08-06T09:39:13;11.10;;;2.00;;
26718;SDS011;14326;50.794;6.060;2023-08-06T09:41:41;10.82;;;2.00;;
26718;SDS011;14326;50.794;6.060;2023-08-06T09:44:13;15.10;;;2.38;;
26718;SDS011;14326;50.794;6.060;2023-08-06T09:46:42;8.77;;;1.67;;
26718;SDS011;14326;50.794;6.060;2023-08-06T09:49:09;12.65;;;2.38;;
26718;SDS011;14326;50.794;6.060;2023-08-06T09:51:36;8.13;;;2.10;;
26718;SDS011;14326;50.794;6.060;2023-08-06T09:54:06;9.57;;;1.80;;
26718;SDS011;14326;50.794;6.060;2023-08-06T09:56:33;10.10;;;2.45;;
26718;SDS011;14326;50.794;6.060;2023-08-06T09:59:03;8.90;;;2.10;;
26718;SDS011;14326;50.794;6.060;2023-08-06T10:01:31;13.68;;;2.58;;
26718;SDS011;14326;50.794;6.060;2023-08-06T10:03:59;8.98;;;1.98;;
26718;SDS011;14326;50.794;6.060;2023-08-06T10:06:26;8.02;;;1.75;;
26718;SDS011;14326;50.794;6.060;2023-08-06T10:08:55;12.98;;;2.25;;
26718;SDS011;14326;50.794;6.060;2023-08-06T10:11:23;11.80;;;2.72;;
26718;SDS011;14326;50.794;6.060;2023-08-06T10:13:51;13.13;;;2.25;;
26718;SDS011;14326;50.794;6.060;2023-08-06T10:16:21;11.27;;;2.50;;
26718;SDS011;14326;50.794;6.060;2023-08-06T10:18:48;9.23;;;2.53;;
26718;SDS011;14326;50.794;6.060;2023-08-06T10:21:16;10.95;;;3.17;;
26718;SDS011;14326;50.794;6.060;2023-08-06T10:23:43;15.00;;;2.30;;
26718;SDS011;14326;50.794;6.060;2023-08-06T10:26:09;15.95;;;3.00;;
26718;SDS011;14326;50.794;6.060;2023-08-06T10:28:38;11.02;;;3.08;;
26718;SDS011;14326;50.794;6.060;2023-08-06T10:31:05;12.20;;;2.28;;
26718;SDS011;14326;50.794;6.060;2023-08-06T10:33:41;13.60;;;2.63;;
26718;SDS011;14326;50.794;6.060;2023-08-06T10:36:09;12.52;;;2.50;;
26718;SDS011;14326;50.794;6.060;2023-08-06T10:38:43;14.75;;;2.40;;
26718;SDS011;14326;50.794;6.060;2023-08-06T10:41:14;9.15;;;2.05;;
26718;SDS011;14326;50.794;6.060;2023-08-06T10:43:44;13.82;;;2.10;;
26718;SDS011;14326;50.794;6.060;2023-08-06T10:46:21;9.98;;;2.10;;
26718;SDS011;14326;50.794;6.060;2023-08-06T10:48:49;8.90;;;1.95;;
26718;SDS011;14326;50.794;6.060;2023-08-06T10:51:17;12.38;;;2.10;;
26718;SDS011;14326;50.794;6.060;2023-08-06T10:53:44;9.90;;;2.08;;
26718;SDS011;14326;50.794;6.060;2023-08-06T10:56:11;7.72;;;1.75;;
26718;SDS011;14326;50.794;6.060;2023-08-06T10:58:39;9.45;;;2.00;;
26718;SDS011;14326;50.794;6.060;2023-08-06T11:01:07;9.15;;;2.25;;
26718;SDS011;14326;50.794;6.060;2023-08-06T11:03:34;9.57;;;1.77;;
26718;SDS011;14326;50.794;6.060;2023-08-06T11:06:02;8.80;;;1.50;;
26718;SDS011;14326;50.794;6.060;2023-08-06T11:08:33;11.50;;;2.03;;
26718;SDS011;14326;50.794;6.060;2023-08-06T11:11:07;7.68;;;2.13;;
26718;SDS011;14326;50.794;6.060;2023-08-06T11:13:35;8.60;;;2.50;;
26718;SDS011;14326;50.794;6.060;2023-08-06T11:16:02;8.00;;;2.13;;
26718;SDS011;14326;50.794;6.060;2023-08-06T11:18:31;8.27;;;2.22;;
26718;SDS011;14326;50.794;6.060;2023-08-06T11:20:58;7.82;;;2.75;;
26718;SDS011;14326;50.794;6.060;2023-08-06T11:23:25;6.60;;;2.17;;
26718;SDS011;14326;50.794;6.060;2023-08-06T11:25:53;8.10;;;2.28;;
26718;SDS011;14326;50.794;6.060;2023-08-06T11:28:19;10.45;;;2.17;;
26718;SDS011;14326;50.794;6.060;2023-08-06T11:30:47;7.43;;;1.88;;
26718;SDS011;14326;50.794;6.060;2023-08-06T11:33:13;6.10;;;1.85;;
26718;SDS011;14326;50.794;6.060;2023-08-06T11:35:41;4.60;;;1.60;;
26718;SDS011;14326;50.794;6.060;2023-08-06T11:38:08;6.72;;;1.50;;
26718;SDS011;14326;50.794;6.060;2023-08-06T11:40:35;5.47;;;1.38;;
26718;SDS011;14326;50.794;6.060;2023-08-06T11:43:02;7.97;;;2.30;;
26718;SDS011;14326;50.794;6.060;2023-08-06T11:45:28;9.50;;;1.88;;
26718;SDS011;14326;50.794;6.060;2023-08-06T11:47:55;4.10;;;1.35;;
26718;SDS011;14326;50.794;6.060;2023-08-06T11:50:22;7.35;;;1.45;;
26718;SDS011;14326;50.794;6.060;2023-08-06T11:52:53;4.30;;;1.65;;
26718;SDS011;14326;50.794;6.060;2023-08-06T11:55:22;4.07;;;1.50;;
26718;SDS011;14326;50.794;6.060;2023-08-06T11:57:50;5.07;;;1.20;;
26718;SDS011;14326;50.794;6.060;2023-08-06T12:00:17;5.22;;;1.30;;
26718;SDS011;14326;50.794;6.060;2023-08-06T12:02:47;5.50;;;1.50;;
26718;SDS011;14326;50.794;6.060;2023-08-06T12:05:15;6.70;;;1.65;;
26718;SDS011;14326;50.794;6.060;2023-08-06T12:07:43;4.40;;;1.15;;
26718;SDS011;14326;50.794;6.060;2023-08-06T12:10:13;5.28;;;1.25;;
26718;SDS011;14326;50.794;6.060;2023-08-06T12:12:40;4.22;;;1.30;;
26718;SDS011;14326;50.794;6.060;2023-08-06T12:15:08;11.88;;;1.85;;
26718;SDS011;14326;50.794;6.060;2023-08-06T12:17:35;5.63;;;1.80;;
26718;SDS011;14326;50.794;6.060;2023-08-06T12:20:03;8.40;;;1.73;;
26718;SDS011;14326;50.794;6.060;2023-08-06T12:22:31;8.25;;;1.90;;
26718;SDS011;14326;50.794;6.060;2023-08-06T12:25:00;7.68;;;1.55;;
26718;SDS011;14326;50.794;6.060;2023-08-06T12:27:30;6.20;;;1.80;;
26718;SDS011;14326;50.794;6.060;2023-08-06T12:29:56;9.18;;;2.05;;
26718;SDS011;14326;50.794;6.060;2023-08-06T12:32:23;10.65;;;2.20;;
26718;SDS011;14326;50.794;6.060;2023-08-06T12:34:49;9.88;;;2.10;;
26718;SDS011;14326;50.794;6.060;2023-08-06T12:37:16;5.88;;;1.85;;
26718;SDS011;14326;50.794;6.060;2023-08-06T12:39:43;8.23;;;2.10;;
26718;SDS011;14326;50.794;6.060;2023-08-06T12:42:10;7.43;;;1.83;;
26718;SDS011;14326;50.794;6.060;2023-08-06T12:44:38;8.13;;;1.77;;
26718;SDS011;14326;50.794;6.060;2023-08-06T12:47:06;12.23;;;2.20;;
26718;SDS011;14326;50.794;6.060;2023-08-06T12:49:33;6.80;;;1.38;;
26718;SDS011;14326;50.794;6.060;2023-08-06T12:52:00;11.60;;;1.92;;
26718;SDS011;14326;50.794;6.060;2023-08-06T12:54:27;6.40;;;1.55;;
26718;SDS011;14326;50.794;6.060;2023-08-06T12:56:54;7.38;;;1.80;;
26718;SDS011;14326;50.794;6.060;2023-08-06T12:59:21;10.48;;;2.00;;
26718;SDS011;14326;50.794;6.060;2023-08-06T13:01:48;10.40;;;2.45;;
26718;SDS011;14326;50.794;6.060;2023-08-06T13:04:15;7.90;;;1.80;;
26718;SDS011;14326;50.794;6.060;2023-08-06T13:06:42;6.45;;;1.65;;
26718;SDS011;14326;50.794;6.060;2023-08-06T13:09:08;6.25;;;1.48;;
26718;SDS011;14326;50.794;6.060;2023-08-06T13:11:36;9.95;;;1.75;;
26718;SDS011;14326;50.794;6.060;2023-08-06T13:14:06;6.60;;;1.40;;
26718;SDS011;14326;50.794;6.060;2023-08-06T13:16:34;8.88;;;1.23;;
26718;SDS011;14326;50.794;6.060;2023-08-06T13:19:02;9.75;;;1.75;;
26718;SDS011;14326;50.794;6.060;2023-08-06T13:21:31;6.25;;;1.75;;
26718;SDS011;14326;50.794;6.060;2023-08-06T13:23:59;7.60;;;1.42;;
26718;SDS011;14326;50.794;6.060;2023-08-06T13:26:26;6.20;;;1.42;;
26718;SDS011;14326;50.794;6.060;2023-08-06T13:28:53;7.30;;;1.55;;
26718;SDS011;14326;50.794;6.060;2023-08-06T13:31:20;6.45;;;1.30;;
26718;SDS011;14326;50.794;6.060;2023-08-06T13:33:46;7.82;;;1.33;;
26718;SDS011;14326;50.794;6.060;2023-08-06T13:36:16;6.88;;;0.70;;
26718;SDS011;14326;50.794;6.060;2023-08-06T13:38:43;3.75;;;0.90;;
26718;SDS011;14326;50.794;6.060;2023-08-06T13:41:10;1.88;;;0.63;;
26718;SDS011;14326;50.794;6.060;2023-08-06T13:43:36;4.63;;;0.93;;
26718;SDS011;14326;50.794;6.060;2023-08-06T13:46:03;5.50;;;1.13;;
26718;SDS011;14326;50.794;6.060;2023-08-06T13:48:29;3.60;;;1.27;;
26718;SDS011;14326;50.794;6.060;2023-08-06T13:50:56;5.80;;;1.35;;
26718;SDS011;14326;50.794;6.060;2023-08-06T13:53:24;9.38;;;2.00;;
26718;SDS011;14326;50.794;6.060;2023-08-06T13:55:55;7.40;;;1.88;;
26718;SDS011;14326;50.794;6.060;2023-08-06T13:58:21;7.90;;;2.13;;
26718;SDS011;14326;50.794;6.060;2023-08-06T14:00:48;7.40;;;2.15;;
26718;SDS011;14326;50.794;6.060;2023-08-06T14:03:17;7.80;;;2.13;;
26718;SDS011;14326;50.794;6.060;2023-08-06T14:05:44;6.75;;;1.75;;
26718;SDS011;14326;50.794;6.060;2023-08-06T14:08:11;5.70;;;1.75;;
26718;SDS011;14326;50.794;6.060;2023-08-06T14:10:40;6.43;;;1.80;;
26718;SDS011;14326;50.794;6.060;2023-08-06T14:13:06;5.72;;;1.50;;
26718;SDS011;14326;50.794;6.060;2023-08-06T14:15:33;4.85;;;1.60;;
26718;SDS011;14326;50.794;6.060;2023-08-06T14:17:59;6.97;;;1.52;;
26718;SDS011;14326;50.794;6.060;2023-08-06T14:20:27;6.50;;;1.55;;
26718;SDS011;14326;50.794;6.060;2023-08-06T14:22:54;7.10;;;2.08;;
26718;SDS011;14326;50.794;6.060;2023-08-06T14:25:20;4.35;;;1.13;;
26718;SDS011;14326;50.794;6.060;2023-08-06T14:27:48;3.92;;;1.45;;
26718;SDS011;14326;50.794;6.060;2023-08-06T14:30:15;7.20;;;1.08;;
26718;SDS011;14326;50.794;6.060;2023-08-06T14:32:41;6.85;;;1.60;;
26718;SDS011;14326;50.794;6.060;2023-08-06T14:35:08;7.20;;;1.50;;
26718;SDS011;14326;50.794;6.060;2023-08-06T14:37:35;10.30;;;1.60;;
26718;SDS011;14326;50.794;6.060;2023-08-06T14:40:01;10.60;;;1.50;;
26718;SDS011;14326;50.794;6.060;2023-08-06T14:42:29;7.75;;;1.23;;
26718;SDS011;14326;50.794;6.060;2023-08-06T14:44:56;7.68;;;1.38;;
26718;SDS011;14326;50.794;6.060;2023-08-06T14:47:23;3.22;;;1.30;;
26718;SDS011;14326;50.794;6.060;2023-08-06T14:49:50;4.78;;;1.23;;